Time;durP1;ratioP1;P1;durP2;ratioP2;P2;SDS_P1;SDS_P2;PMS_P1;PMS_P2;Temp;Humidity;BMP_temperature;BMP_pressure;BME280_temperature;BME280_humidity;BME280_pressure;Samples;Min_cycle;Max_cycle;Signal;HPM_P1;HPM_P2
2022/07/24 00:01:31;;;;;;;3.78;2.30;;;17.30;99.90;;;;;;5008356;28;20045;-76
2022/07/24 00:04:14;;;;;;;4.50;2.40;;;17.20;99.90;;;;;;5001561;28;20042;-76
2022/07/24 00:06:40;;;;;;;4.15;2.50;;;17.20;99.90;;;;;;5023435;28;20117;-76
2022/07/24 00:09:06;;;;;;;4.07;2.38;;;17.10;99.90;;;;;;5009127;28;20038;-76
2022/07/24 00:11:32;;;;;;;5.25;2.60;;;17.10;99.90;;;;;;5009784;28;20042;-76
2022/07/24 00:13:58;;;;;;;4.00;2.80;;;17.10;99.90;;;;;;4987310;28;20069;-76
2022/07/24 00:16:23;;;;;;;4.22;2.60;;;17.00;99.90;;;;;;5016160;28;20069;-76
2022/07/24 00:18:49;;;;;;;3.58;2.63;;;17.00;99.90;;;;;;4995244;28;20069;-76
2022/07/24 00:21:15;;;;;;;3.95;2.65;;;17.00;99.90;;;;;;4998948;28;20030;-77
2022/07/24 00:23:41;;;;;;;4.43;2.63;;;17.00;99.90;;;;;;5003146;28;20524;-76
2022/07/24 00:26:07;;;;;;;3.20;2.78;;;16.90;99.90;;;;;;4995402;28;20034;-76
2022/07/24 00:28:32;;;;;;;3.92;2.70;;;16.90;99.90;;;;;;5002992;28;20543;-76
2022/07/24 00:30:58;;;;;;;5.75;2.65;;;16.90;99.90;;;;;;5003952;28;20042;-76
2022/07/24 00:33:23;;;;;;;4.28;3.28;;;16.90;99.90;;;;;;4995216;28;20038;-77
2022/07/24 00:35:50;;;;;;;3.15;2.40;;;16.80;99.90;;;;;;5023077;28;20083;-76
2022/07/24 00:38:16;;;;;;;4.35;2.97;;;16.80;99.90;;;;;;5002137;28;20412;-76
2022/07/24 00:40:41;;;;;;;3.78;3.00;;;16.80;99.90;;;;;;4996885;28;20038;-76
2022/07/24 00:43:07;;;;;;;6.88;3.30;;;16.70;99.90;;;;;;5006708;28;20488;-76
2022/07/24 00:45:33;;;;;;;5.80;2.70;;;16.70;99.90;;;;;;4996858;28;20046;-76
2022/07/24 00:47:59;;;;;;;4.18;2.70;;;16.70;99.90;;;;;;5012474;28;20034;-76
2022/07/24 00:50:25;;;;;;;4.53;3.17;;;16.70;99.90;;;;;;4995344;28;20045;-76
2022/07/24 00:52:52;;;;;;;3.60;2.88;;;16.70;99.90;;;;;;5005710;28;20096;-76
2022/07/24 00:55:18;;;;;;;4.95;3.10;;;16.70;99.90;;;;;;5003452;28;20042;-76
2022/07/24 00:57:46;;;;;;;5.63;3.20;;;16.60;99.90;;;;;;5007161;28;20524;-76
2022/07/24 01:00:12;;;;;;;3.80;2.83;;;16.70;99.90;;;;;;5015661;28;20034;-76
2022/07/24 01:02:42;;;;;;;6.80;3.55;;;16.70;99.90;;;;;;5005534;28;20056;-76
2022/07/24 01:05:12;;;;;;;4.85;3.33;;;16.70;99.90;;;;;;4995987;28;20083;-76
2022/07/24 01:07:38;;;;;;;4.53;3.40;;;16.60;99.90;;;;;;5013523;28;20042;-76
2022/07/24 01:10:05;;;;;;;4.10;3.25;;;16.60;99.90;;;;;;4998488;28;20656;-76
2022/07/24 01:12:33;;;;;;;4.55;3.25;;;16.60;99.90;;;;;;5007388;28;20526;-76
2022/07/24 01:14:58;;;;;;;3.90;3.15;;;16.60;99.90;;;;;;5010846;28;20045;-76
2022/07/24 01:17:29;;;;;;;4.45;3.40;;;16.50;99.90;;;;;;4996575;28;20050;-76
2022/07/24 01:19:55;;;;;;;4.13;3.13;;;16.50;99.90;;;;;;5000533;28;20045;-76
2022/07/24 01:22:20;;;;;;;4.47;2.97;;;16.50;99.90;;;;;;5002518;28;20046;-76
2022/07/24 01:24:46;;;;;;;5.35;3.50;;;16.50;99.90;;;;;;5016753;28;20403;-76
2022/07/24 01:27:12;;;;;;;6.32;3.10;;;16.50;99.90;;;;;;5007997;28;20046;-76
2022/07/24 01:29:38;;;;;;;3.92;3.17;;;16.50;99.90;;;;;;5002982;28;20063;-75
2022/07/24 01:32:04;;;;;;;4.20;3.30;;;16.50;99.90;;;;;;5007980;28;20458;-75
2022/07/24 01:34:30;;;;;;;4.13;3.63;;;16.40;99.90;;;;;;5020715;28;20088;-76
2022/07/24 01:36:55;;;;;;;4.63;3.35;;;16.40;99.90;;;;;;5022450;28;20038;-76
2022/07/24 01:39:21;;;;;;;4.30;3.17;;;16.40;99.90;;;;;;5000475;28;20045;-75
2022/07/24 01:41:47;;;;;;;4.53;3.40;;;16.50;99.90;;;;;;4993230;28;20050;-75
2022/07/24 01:44:12;;;;;;;4.28;3.55;;;16.40;99.90;;;;;;5006187;28;20046;-75
2022/07/24 01:46:38;;;;;;;4.03;3.47;;;16.30;99.90;;;;;;5008313;28;20050;-75
2022/07/24 01:49:03;;;;;;;4.05;3.65;;;16.40;99.90;;;;;;5007110;28;20088;-76
2022/07/24 01:51:29;;;;;;;4.40;3.75;;;16.40;99.90;;;;;;5004923;28;20038;-76
2022/07/24 01:53:54;;;;;;;5.53;3.58;;;16.40;99.90;;;;;;5025372;28;20045;-75
2022/07/24 01:56:20;;;;;;;5.63;3.88;;;16.40;99.90;;;;;;5001571;28;20132;-75
2022/07/24 01:58:45;;;;;;;4.63;3.33;;;16.40;99.90;;;;;;5020341;28;20125;-75
2022/07/24 02:01:11;;;;;;;4.40;3.50;;;16.30;99.90;;;;;;5003918;28;20050;-75
2022/07/24 02:03:37;;;;;;;4.95;3.72;;;16.40;99.90;;;;;;5009941;28;20038;-76
2022/07/24 02:06:02;;;;;;;5.22;3.95;;;16.30;99.90;;;;;;5005580;28;20034;-76
2022/07/24 02:08:28;;;;;;;4.15;3.30;;;16.30;99.90;;;;;;4996924;28;20484;-76
2022/07/24 02:10:54;;;;;;;5.38;3.50;;;16.30;99.90;;;;;;5009339;28;20447;-75
2022/07/24 02:13:19;;;;;;;5.43;3.55;;;16.20;99.90;;;;;;5010484;28;20377;-75
2022/07/24 02:15:45;;;;;;;6.13;3.75;;;16.20;99.90;;;;;;5005568;28;20034;-76
2022/07/24 02:18:10;;;;;;;6.40;3.88;;;16.20;99.90;;;;;;5001495;28;20046;-75
2022/07/24 02:20:36;;;;;;;4.80;3.67;;;16.20;99.90;;;;;;4991569;28;20045;-75
2022/07/24 02:23:02;;;;;;;5.30;3.65;;;16.20;99.90;;;;;;5005339;28;20068;-75
2022/07/24 02:25:27;;;;;;;4.15;3.75;;;16.10;99.90;;;;;;5006028;28;20034;-75
2022/07/24 02:27:53;;;;;;;4.85;3.88;;;16.20;99.90;;;;;;5008715;28;20038;-76
2022/07/24 02:30:21;;;;;;;4.15;3.65;;;16.10;99.90;;;;;;5007724;28;20037;-75
2022/07/24 02:32:46;;;;;;;4.40;3.67;;;16.20;99.90;;;;;;5001227;28;20049;-75
2022/07/24 02:35:12;;;;;;;4.35;3.75;;;16.20;99.90;;;;;;5021167;28;20042;-75
2022/07/24 02:37:40;;;;;;;5.57;3.58;;;16.20;99.90;;;;;;5005998;28;20045;-75
2022/07/24 02:40:07;;;;;;;7.13;4.38;;;16.10;99.90;;;;;;5000171;28;20515;-75
2022/07/24 02:42:33;;;;;;;4.93;4.30;;;16.10;99.90;;;;;;5026197;28;20446;-75
2022/07/24 02:44:59;;;;;;;5.55;3.95;;;16.10;99.90;;;;;;5004882;28;20034;-75
2022/07/24 02:47:24;;;;;;;6.25;4.35;;;16.00;99.90;;;;;;5004435;28;20403;-75
2022/07/24 02:49:50;;;;;;;6.25;4.65;;;16.10;99.90;;;;;;4997621;28;20036;-76
2022/07/24 02:52:15;;;;;;;6.25;4.80;;;16.10;99.90;;;;;;5002716;28;20459;-75
2022/07/24 02:54:41;;;;;;;6.97;4.60;;;16.10;99.90;;;;;;5003595;28;20041;-76
2022/07/24 02:57:07;;;;;;;7.05;4.72;;;16.10;99.90;;;;;;5024529;28;20464;-75
2022/07/24 02:59:32;;;;;;;6.30;4.10;;;16.00;99.90;;;;;;5003586;28;20676;-76
2022/07/24 03:01:58;;;;;;;6.85;4.43;;;16.10;99.90;;;;;;5025086;28;20117;-75
2022/07/24 03:04:23;;;;;;;6.13;4.50;;;16.00;99.90;;;;;;5009676;28;20038;-76
2022/07/24 03:06:49;;;;;;;4.82;4.35;;;16.10;99.90;;;;;;5004020;28;20065;-76
2022/07/24 03:09:15;;;;;;;6.18;4.80;;;16.10;99.90;;;;;;5004628;28;20484;-76
2022/07/24 03:11:40;;;;;;;6.68;4.75;;;16.00;99.90;;;;;;5022081;28;20041;-76
2022/07/24 03:14:06;;;;;;;6.00;4.75;;;16.00;99.90;;;;;;4999300;28;20181;-75
2022/07/24 03:16:31;;;;;;;5.82;4.68;;;16.00;99.90;;;;;;5005715;28;20479;-76
2022/07/24 03:18:57;;;;;;;6.18;4.80;;;16.00;99.90;;;;;;5001711;28;20561;-76
2022/07/24 03:21:23;;;;;;;6.78;4.95;;;16.00;99.90;;;;;;5000251;28;20050;-75
2022/07/24 03:23:49;;;;;;;5.50;4.82;;;16.00;99.90;;;;;;5012143;28;20033;-76
2022/07/24 03:26:14;;;;;;;5.65;4.88;;;15.90;99.90;;;;;;5008445;28;20539;-76
2022/07/24 03:28:40;;;;;;;7.55;5.43;;;16.00;99.90;;;;;;5005185;28;20038;-75
2022/07/24 03:31:05;;;;;;;5.90;5.20;;;16.00;99.90;;;;;;5001462;28;20037;-75
2022/07/24 03:33:31;;;;;;;6.20;5.60;;;15.90;99.90;;;;;;5020028;28;20046;-75
2022/07/24 03:35:57;;;;;;;5.53;4.95;;;15.90;99.90;;;;;;5004784;28;20395;-76
2022/07/24 03:38:22;;;;;;;6.20;4.75;;;15.90;99.90;;;;;;5004133;28;20042;-75
2022/07/24 03:40:48;;;;;;;9.10;5.78;;;16.00;99.90;;;;;;5008539;28;20042;-76
2022/07/24 03:43:13;;;;;;;5.82;5.22;;;15.90;99.90;;;;;;5004215;28;20034;-76
2022/07/24 03:45:39;;;;;;;5.32;4.82;;;15.90;99.90;;;;;;5016309;28;20070;-76
2022/07/24 03:48:05;;;;;;;8.45;5.93;;;15.90;99.90;;;;;;4995226;28;20100;-76
2022/07/24 03:50:30;;;;;;;6.97;5.55;;;15.90;99.90;;;;;;5006567;28;20045;-76
2022/07/24 03:52:56;;;;;;;7.22;6.22;;;15.90;99.90;;;;;;5005800;28;20037;-76
2022/07/24 03:55:22;;;;;;;6.85;5.70;;;15.90;99.90;;;;;;5024024;28;20049;-75
2022/07/24 03:57:48;;;;;;;7.57;5.80;;;15.90;99.90;;;;;;5002142;28;20038;-76
2022/07/24 04:00:14;;;;;;;8.10;5.93;;;15.90;99.90;;;;;;4999743;28;20042;-76
2022/07/24 04:02:40;;;;;;;7.05;6.35;;;15.90;99.90;;;;;;5007811;28;20052;-76
2022/07/24 04:05:08;;;;;;;7.22;5.57;;;15.90;99.90;;;;;;5003708;28;20417;-76
2022/07/24 04:07:35;;;;;;;7.30;6.05;;;15.90;99.90;;;;;;5002564;28;20080;-76
2022/07/24 04:10:01;;;;;;;6.60;5.88;;;15.90;99.90;;;;;;5003365;28;20555;-75
2022/07/24 04:12:27;;;;;;;8.13;5.82;;;15.90;99.90;;;;;;5009893;28;20084;-76
2022/07/24 04:14:52;;;;;;;7.05;5.75;;;15.90;99.90;;;;;;5004808;28;20125;-76
2022/07/24 04:17:18;;;;;;;9.00;5.68;;;15.90;99.90;;;;;;5023437;28;20038;-76
2022/07/24 04:19:43;;;;;;;9.57;5.50;;;15.90;99.90;;;;;;5005328;28;20030;-75
2022/07/24 04:22:09;;;;;;;8.70;6.10;;;15.90;99.90;;;;;;5002637;28;20026;-76
2022/07/24 04:24:34;;;;;;;6.22;5.43;;;15.90;99.90;;;;;;4998434;28;20039;-76
2022/07/24 04:27:00;;;;;;;5.90;5.30;;;15.90;99.90;;;;;;5003346;28;20454;-76
2022/07/24 04:29:25;;;;;;;6.80;5.43;;;15.90;99.90;;;;;;5003894;28;20038;-76
2022/07/24 04:31:51;;;;;;;6.32;5.72;;;16.00;99.90;;;;;;5006625;28;20030;-76
2022/07/24 04:34:16;;;;;;;6.45;5.70;;;16.00;99.90;;;;;;4995785;28;20034;-76
2022/07/24 04:36:42;;;;;;;7.00;5.75;;;16.00;99.90;;;;;;5005568;28;20037;-76
2022/07/24 04:39:07;;;;;;;6.97;6.00;;;16.00;99.90;;;;;;5014458;28;20034;-76
2022/07/24 04:41:33;;;;;;;7.55;5.68;;;16.00;99.90;;;;;;5005152;28;20062;-76
2022/07/24 04:43:58;;;;;;;10.18;5.57;;;16.20;99.90;;;;;;5020150;28;20038;-76
2022/07/24 04:46:24;;;;;;;6.45;5.70;;;16.10;99.90;;;;;;4990932;28;20041;-76
2022/07/24 04:48:50;;;;;;;7.30;6.18;;;16.10;99.90;;;;;;4986811;28;20493;-75
2022/07/24 04:51:16;;;;;;;6.28;5.65;;;16.10;99.90;;;;;;4998660;28;20093;-76
2022/07/24 04:53:41;;;;;;;7.28;5.50;;;16.10;99.90;;;;;;4996819;28;20091;-76
2022/07/24 04:56:07;;;;;;;6.50;5.70;;;16.20;99.90;;;;;;4997768;28;20562;-76
2022/07/24 04:58:32;;;;;;;8.05;5.95;;;16.20;99.90;;;;;;5022783;28;20038;-76
2022/07/24 05:00:58;;;;;;;7.90;6.43;;;16.30;99.90;;;;;;5003575;28;20038;-76
2022/07/24 05:03:24;;;;;;;7.13;5.60;;;16.40;99.90;;;;;;5018690;28;20065;-76
2022/07/24 05:05:49;;;;;;;6.90;5.95;;;16.50;99.90;;;;;;5009971;28;20497;-76
2022/07/24 05:08:15;;;;;;;6.97;5.72;;;16.60;99.90;;;;;;5015678;28;20026;-76
2022/07/24 05:10:40;;;;;;;8.32;5.88;;;16.70;99.90;;;;;;5018642;28;20037;-76
2022/07/24 05:13:06;;;;;;;6.95;6.25;;;16.80;99.90;;;;;;5005568;28;20038;-76
2022/07/24 05:15:31;;;;;;;8.25;6.28;;;16.90;99.90;;;;;;5003386;28;20152;-76
2022/07/24 05:17:57;;;;;;;8.43;5.90;;;17.00;99.90;;;;;;5012595;28;20035;-76
2022/07/24 05:20:23;;;;;;;8.15;6.32;;;17.00;99.90;;;;;;5006572;28;20030;-77
2022/07/24 05:22:48;;;;;;;6.70;5.85;;;17.10;99.90;;;;;;4995228;28;20105;-76
2022/07/24 05:25:14;;;;;;;8.02;5.97;;;17.10;99.90;;;;;;5005067;28;20061;-76
2022/07/24 05:27:40;;;;;;;8.13;6.38;;;17.30;99.90;;;;;;5014293;28;20037;-76
2022/07/24 05:30:07;;;;;;;8.73;6.28;;;17.40;99.90;;;;;;5004415;28;20038;-76
2022/07/24 05:32:32;;;;;;;9.52;6.35;;;17.50;99.90;;;;;;4993162;28;20133;-77
2022/07/24 05:34:58;;;;;;;9.73;6.50;;;17.40;99.90;;;;;;5003161;28;20117;-77
2022/07/24 05:37:23;;;;;;;7.97;6.50;;;17.50;99.90;;;;;;5002066;28;20050;-76
2022/07/24 05:39:49;;;;;;;8.02;6.32;;;17.50;99.90;;;;;;5017710;28;20088;-76
2022/07/24 05:42:15;;;;;;;8.48;6.70;;;17.60;99.90;;;;;;5012138;28;20784;-77
2022/07/24 05:44:40;;;;;;;8.45;6.55;;;17.50;99.90;;;;;;5000826;28;20044;-76
2022/07/24 05:47:06;;;;;;;10.50;7.22;;;17.50;99.90;;;;;;5006688;28;20092;-76
2022/07/24 05:49:31;;;;;;;8.32;6.93;;;17.50;99.90;;;;;;5008877;28;20116;-76
2022/07/24 05:51:57;;;;;;;7.95;6.32;;;17.50;99.90;;;;;;5023143;28;20096;-76
2022/07/24 05:54:23;;;;;;;11.48;7.32;;;17.50;99.90;;;;;;5014267;28;20034;-76
2022/07/24 05:56:48;;;;;;;8.75;6.75;;;17.50;99.90;;;;;;4998340;28;20595;-76
2022/07/24 05:59:14;;;;;;;11.15;7.45;;;17.60;99.90;;;;;;5018514;28;20034;-77
2022/07/24 06:01:40;;;;;;;8.95;7.50;;;17.70;99.90;;;;;;5020094;28;20572;-76
2022/07/24 06:04:05;;;;;;;8.98;6.88;;;17.90;99.90;;;;;;5006720;28;20487;-76
2022/07/24 06:06:31;;;;;;;7.97;7.18;;;18.10;99.90;;;;;;5000958;28;20042;-76
2022/07/24 06:08:57;;;;;;;11.35;8.07;;;18.30;99.90;;;;;;5010120;28;20124;-77
2022/07/24 06:11:23;;;;;;;10.80;8.30;;;18.50;99.90;;;;;;5004589;28;20049;-77
2022/07/24 06:13:49;;;;;;;9.88;7.90;;;18.50;99.90;;;;;;4996688;28;20408;-76
2022/07/24 06:16:14;;;;;;;9.25;7.95;;;18.60;99.90;;;;;;4993651;28;20038;-76
2022/07/24 06:18:40;;;;;;;8.95;7.38;;;18.80;99.90;;;;;;4994380;28;20034;-76
2022/07/24 06:21:06;;;;;;;9.38;8.40;;;18.90;99.90;;;;;;5002451;28;20037;-77
2022/07/24 06:23:32;;;;;;;8.60;7.70;;;18.90;99.90;;;;;;4997131;28;20070;-76
2022/07/24 06:25:58;;;;;;;10.82;8.27;;;19.00;99.90;;;;;;4993605;28;20045;-76
2022/07/24 06:28:24;;;;;;;9.80;8.00;;;19.10;99.90;;;;;;4997345;28;20053;-76
2022/07/24 06:30:49;;;;;;;10.30;7.57;;;19.30;99.90;;;;;;4995495;28;20042;-76
2022/07/24 06:33:15;;;;;;;11.25;8.02;;;19.30;99.90;;;;;;4994619;28;20045;-75
2022/07/24 06:35:41;;;;;;;11.10;8.57;;;19.50;99.90;;;;;;5000059;28;20048;-76
2022/07/24 06:38:06;;;;;;;12.38;9.55;;;19.60;99.90;;;;;;5003009;28;20046;-77
2022/07/24 06:40:34;;;;;;;13.85;9.30;;;19.60;99.90;;;;;;5005039;28;20042;-76
2022/07/24 06:42:59;;;;;;;10.93;9.10;;;19.80;99.90;;;;;;4996850;28;20042;-78
2022/07/24 06:45:25;;;;;;;11.90;9.63;;;19.90;99.90;;;;;;4997580;28;20045;-77
2022/07/24 06:47:51;;;;;;;11.77;9.15;;;20.00;99.90;;;;;;5005793;28;20057;-76
2022/07/24 06:50:16;;;;;;;12.73;9.35;;;20.10;99.90;;;;;;5016902;28;20123;-77
2022/07/24 06:52:42;;;;;;;13.00;10.10;;;20.20;99.90;;;;;;5000183;28;20508;-76
2022/07/24 06:55:08;;;;;;;12.57;9.80;;;20.30;99.90;;;;;;4995303;28;20038;-77
2022/07/24 06:57:34;;;;;;;11.88;9.35;;;20.40;99.90;;;;;;4998537;28;20043;-77
2022/07/24 06:59:59;;;;;;;13.20;9.77;;;20.50;99.90;;;;;;4994109;28;20404;-77
2022/07/24 07:02:25;;;;;;;11.10;9.65;;;20.60;99.90;;;;;;5012904;28;20404;-76
2022/07/24 07:04:51;;;;;;;10.85;9.20;;;20.70;99.90;;;;;;4994154;28;20408;-76
2022/07/24 07:07:16;;;;;;;11.57;8.95;;;20.90;99.90;;;;;;4993040;28;20053;-76
2022/07/24 07:09:43;;;;;;;13.57;9.20;;;21.00;99.90;;;;;;5004173;28;20074;-77
2022/07/24 07:12:09;;;;;;;13.60;8.93;;;21.10;99.90;;;;;;4992817;28;20105;-76
2022/07/24 07:14:35;;;;;;;9.93;8.52;;;21.20;99.90;;;;;;4994604;28;20091;-76
2022/07/24 07:17:00;;;;;;;11.05;9.00;;;21.20;99.90;;;;;;5003398;28;20452;-76
2022/07/24 07:19:26;;;;;;;10.57;8.52;;;21.30;99.90;;;;;;5008332;28;20038;-76
2022/07/24 07:21:52;;;;;;;10.40;7.53;;;21.40;99.90;;;;;;4999374;28;20064;-76
2022/07/24 07:24:17;;;;;;;10.90;8.30;;;21.60;99.90;;;;;;5016337;28;20464;-76
2022/07/24 07:26:43;;;;;;;9.40;7.68;;;21.90;99.90;;;;;;5018425;28;20519;-77
2022/07/24 07:29:08;;;;;;;9.45;7.35;;;22.10;99.90;;;;;;4991874;28;20596;-77
2022/07/24 07:31:34;;;;;;;8.05;6.38;;;22.30;99.90;;;;;;5023181;28;20030;-76
2022/07/24 07:34:00;;;;;;;8.13;6.70;;;22.70;99.90;;;;;;5009006;28;20120;-78
2022/07/24 07:36:26;;;;;;;7.22;5.00;;;22.90;99.90;;;;;;5003275;28;20038;-77
2022/07/24 07:38:51;;;;;;;7.47;5.40;;;23.20;99.90;;;;;;5000773;28;20044;-76
2022/07/24 07:41:19;;;;;;;6.15;4.78;;;23.20;99.90;;;;;;5007562;28;20030;-77
2022/07/24 07:43:47;;;;;;;7.63;4.75;;;23.10;99.90;;;;;;5007755;28;20096;-76
2022/07/24 07:46:13;;;;;;;5.45;4.25;;;22.80;99.90;;;;;;5000177;28;20487;-76
2022/07/24 07:48:39;;;;;;;4.43;3.72;;;22.80;99.90;;;;;;4991410;28;20500;-76
2022/07/24 07:51:05;;;;;;;8.65;4.15;;;22.70;99.90;;;;;;5010168;28;20049;-76
2022/07/24 07:53:30;;;;;;;6.50;3.90;;;22.60;99.90;;;;;;5003828;28;20042;-76
2022/07/24 07:55:56;;;;;;;4.70;4.20;;;22.50;99.90;;;;;;5005815;28;20042;-78
2022/07/24 07:58:26;;;;;;;4.88;3.78;;;22.50;99.90;;;;;;5005140;28;20042;-76
2022/07/24 08:00:52;;;;;;;4.63;3.63;;;22.50;99.90;;;;;;4992519;28;20113;-76
2022/07/24 08:03:17;;;;;;;7.13;3.90;;;22.60;99.90;;;;;;5008579;28;20113;-77
2022/07/24 08:05:43;;;;;;;4.18;3.78;;;23.00;99.90;;;;;;5013398;28;20116;-75
2022/07/24 08:08:08;;;;;;;4.65;4.00;;;23.20;99.90;;;;;;5005362;28;20496;-75
2022/07/24 08:10:34;;;;;;;5.70;3.85;;;23.20;99.90;;;;;;5002183;28;20033;-76
2022/07/24 08:13:00;;;;;;;4.38;3.67;;;23.40;99.90;;;;;;5025747;28;20033;-76
2022/07/24 08:15:25;;;;;;;4.85;4.03;;;23.50;99.90;;;;;;5001349;28;20566;-76
2022/07/24 08:17:53;;;;;;;5.57;3.70;;;23.80;99.90;;;;;;5008793;28;20131;-76
2022/07/24 08:20:19;;;;;;;4.55;3.65;;;24.10;99.90;;;;;;5000430;28;20105;-76
2022/07/24 08:22:45;;;;;;;5.15;3.70;;;24.10;99.90;;;;;;5003640;28;20034;-75
2022/07/24 08:25:11;;;;;;;6.13;3.40;;;23.90;99.90;;;;;;5004114;28;20123;-75
2022/07/24 08:27:37;;;;;;;6.05;3.92;;;24.00;99.90;;;;;;5013686;28;20077;-75
2022/07/24 08:30:05;;;;;;;5.43;3.60;;;24.10;99.90;;;;;;4997753;28;20481;-74
2022/07/24 08:32:31;;;;;;;5.25;3.90;;;24.10;99.90;;;;;;5019165;28;20050;-75
2022/07/24 08:34:56;;;;;;;6.53;4.00;;;24.10;99.90;;;;;;5021961;28;20049;-75
2022/07/24 08:37:22;;;;;;;5.47;3.55;;;24.20;99.90;;;;;;5006803;28;20133;-74
2022/07/24 08:39:47;;;;;;;5.65;4.18;;;24.20;99.90;;;;;;5002761;28;20040;-75
2022/07/24 08:42:13;;;;;;;5.18;3.85;;;24.10;99.90;;;;;;5001476;28;20066;-75
2022/07/24 08:44:39;;;;;;;5.15;3.83;;;24.00;99.90;;;;;;4994013;28;20119;-75
2022/07/24 08:47:08;;;;;;;6.05;4.00;;;24.00;99.90;;;;;;5001170;28;20038;-74
2022/07/24 08:49:36;;;;;;;5.50;3.60;;;24.10;99.90;;;;;;5003028;28;20065;-75
2022/07/24 08:52:04;;;;;;;5.00;3.60;;;24.20;99.90;;;;;;5005469;28;20088;-75
2022/07/24 08:54:30;;;;;;;5.30;3.90;;;24.30;99.90;;;;;;5002777;28;20046;-75
2022/07/24 08:56:56;;;;;;;5.88;4.00;;;24.50;99.90;;;;;;5001757;28;20056;-75
2022/07/24 08:59:23;;;;;;;4.68;3.70;;;24.50;99.90;;;;;;5017962;28;20042;-75
2022/07/24 09:01:50;;;;;;;5.55;3.65;;;24.60;99.90;;;;;;5017914;28;20030;-74
2022/07/24 09:04:38;;;;;;;5.45;3.40;;;24.60;99.90;;;;;;4991873;28;20488;-75
2022/07/24 09:07:09;;;;;;;4.60;3.47;;;24.60;99.90;;;;;;5011675;28;20038;-75
2022/07/24 09:09:36;;;;;;;7.43;3.85;;;24.60;99.90;;;;;;4994609;28;20045;-74
2022/07/24 09:12:04;;;;;;;4.93;3.40;;;24.60;99.90;;;;;;4993428;28;20038;-75
2022/07/24 09:14:39;;;;;;;4.20;3.47;;;24.60;99.90;;;;;;5008518;28;20559;-75
2022/07/24 09:17:10;;;;;;;4.93;3.30;;;24.50;99.90;;;;;;4996257;28;20038;-75
2022/07/24 09:19:47;;;;;;;7.15;3.60;;;24.60;99.90;;;;;;5000089;28;20094;-76
2022/07/24 09:22:24;;;;;;;4.20;3.40;;;24.60;99.90;;;;;;5002930;28;20101;-75
2022/07/24 09:25:29;;;;;;;5.10;3.42;;;24.60;99.90;;;;;;4997193;28;20034;-75
2022/07/24 09:28:00;;;;;;;4.78;3.40;;;24.60;99.90;;;;;;5006735;28;20049;-75
2022/07/24 09:30:28;;;;;;;5.45;3.38;;;24.70;99.90;;;;;;5005530;28;20125;-75
2022/07/24 09:33:00;;;;;;;5.60;3.40;;;24.90;99.90;;;;;;5006712;28;20061;-75
2022/07/24 09:35:37;;;;;;;3.35;2.95;;;25.10;99.90;;;;;;5007025;28;20046;-74
2022/07/24 09:38:05;;;;;;;5.97;3.10;;;25.20;99.90;;;;;;5018552;28;20136;-76
2022/07/24 09:40:39;;;;;;;4.30;3.20;;;25.40;99.90;;;;;;5004327;28;20041;-75
2022/07/24 09:43:18;;;;;;;5.00;3.00;;;25.40;99.90;;;;;;4983288;28;20053;-75
2022/07/24 09:46:00;;;;;;;4.07;2.85;;;25.40;99.90;;;;;;5002628;28;20042;-75
2022/07/24 09:48:29;;;;;;;5.40;3.00;;;25.50;99.90;;;;;;5024731;28;20046;-75
2022/07/24 09:51:04;;;;;;;4.88;3.00;;;25.60;99.90;;;;;;5005200;28;20124;-75
2022/07/24 09:53:32;;;;;;;5.22;2.60;;;25.70;99.90;;;;;;5009144;28;20052;-75
2022/07/24 09:56:16;;;;;;;4.18;2.50;;;25.60;99.90;;;;;;5009410;28;20045;-75
2022/07/24 09:58:45;;;;;;;7.35;2.70;;;25.60;99.90;;;;;;5011214;28;20150;-75
2022/07/24 10:01:12;;;;;;;4.82;2.20;;;25.80;99.90;;;;;;5018236;28;20044;-75
2022/07/24 10:03:39;;;;;;;5.45;2.20;;;25.90;99.90;;;;;;5012341;28;20504;-75
2022/07/24 10:06:07;;;;;;;3.45;2.20;;;26.10;99.90;;;;;;5011229;28;20049;-74
2022/07/24 10:08:34;;;;;;;3.85;2.30;;;26.40;99.90;;;;;;5006403;28;20042;-75
2022/07/24 10:11:00;;;;;;;4.45;2.55;;;26.50;99.90;;;;;;5002961;28;20120;-75
2022/07/24 10:13:27;;;;;;;3.75;2.60;;;26.50;99.90;;;;;;5010295;28;20539;-74
2022/07/24 10:16:26;;;;;;;4.85;2.50;;;26.60;99.90;;;;;;4975984;28;20050;-75
2022/07/24 10:19:03;;;;;;;3.00;2.10;;;26.50;98.50;;;;;;5007093;28;20446;-75
2022/07/24 10:21:37;;;;;;;3.25;2.20;;;26.40;99.70;;;;;;5023672;28;20046;-75
2022/07/24 10:24:31;;;;;;;3.17;2.40;;;26.50;99.80;;;;;;5027237;28;20054;-75
2022/07/24 10:27:04;;;;;;;3.42;2.30;;;26.50;99.90;;;;;;4996176;28;20492;-75
2022/07/24 10:29:35;;;;;;;3.20;2.45;;;26.40;99.60;;;;;;4997641;28;20038;-75
2022/07/24 10:32:01;;;;;;;2.38;2.13;;;26.30;99.50;;;;;;4999394;28;20531;-75
2022/07/24 10:34:33;;;;;;;4.38;2.17;;;26.30;99.70;;;;;;5011900;28;20033;-76
2022/07/24 10:37:19;;;;;;;4.00;2.65;;;26.20;99.70;;;;;;5006374;28;20113;-74
2022/07/24 10:40:12;;;;;;;2.60;2.30;;;26.20;99.20;;;;;;4993116;28;20042;-75
2022/07/24 10:43:05;;;;;;;6.13;2.10;;;26.20;98.90;;;;;;4991904;28;20088;-75
2022/07/24 10:45:57;;;;;;;4.28;2.15;;;26.40;99.90;;;;;;4991269;28;20348;-76
2022/07/24 10:48:23;;;;;;;2.90;2.40;;;26.90;99.20;;;;;;4984588;28;20045;-75
2022/07/24 10:51:07;;;;;;;3.97;2.65;;;27.10;99.10;;;;;;4992495;28;20501;-75
2022/07/24 10:53:39;;;;;;;3.53;2.20;;;27.40;99.20;;;;;;5008253;28;20038;-74
2022/07/24 10:56:14;;;;;;;4.57;2.10;;;27.70;97.00;;;;;;5003667;28;20117;-76
2022/07/24 10:58:53;;;;;;;2.38;2.00;;;27.70;98.00;;;;;;4992150;28;20046;-75
2022/07/24 11:01:47;;;;;;;2.58;1.90;;;27.40;97.20;;;;;;4992474;28;20118;-76
2022/07/24 11:04:29;;;;;;;3.95;2.03;;;27.20;96.80;;;;;;5008022;28;20038;-75
2022/07/24 11:07:10;;;;;;;2.35;2.08;;;27.00;96.50;;;;;;4992184;28;20038;-74
2022/07/24 11:10:07;;;;;;;5.00;2.25;;;27.10;97.60;;;;;;4992628;28;20396;-76
2022/07/24 11:12:40;;;;;;;2.83;2.20;;;27.10;97.40;;;;;;4992220;28;20113;-74
2022/07/24 11:17:51;;;;;;;4.05;2.30;;;27.40;97.20;;;;;;4991839;28;20046;-75
2022/07/24 11:20:19;;;;;;;3.50;2.58;;;27.50;96.90;;;;;;5008108;28;20050;-75
2022/07/24 11:22:55;;;;;;;4.15;2.42;;;27.60;96.90;;;;;;4991779;28;20042;-74
2022/07/24 11:25:30;;;;;;;4.00;2.22;;;27.80;97.60;;;;;;4991548;28;20061;-75
2022/07/24 11:28:06;;;;;;;5.93;2.33;;;27.90;96.90;;;;;;4991902;28;20057;-76
2022/07/24 11:30:32;;;;;;;2.97;2.30;;;28.00;96.40;;;;;;5009755;28;20100;-75
2022/07/24 11:32:58;;;;;;;3.33;2.25;;;28.00;96.40;;;;;;5006120;28;20042;-74
2022/07/24 11:35:29;;;;;;;2.67;2.15;;;28.10;96.70;;;;;;5007429;28;20038;-75
2022/07/24 11:37:55;;;;;;;2.10;1.90;;;28.30;96.60;;;;;;4991446;28;20500;-76
2022/07/24 11:40:21;;;;;;;4.10;2.20;;;28.40;95.90;;;;;;5007929;28;20042;-75
2022/07/24 11:42:55;;;;;;;4.28;2.25;;;28.50;95.80;;;;;;5003067;28;20388;-76
2022/07/24 11:45:20;;;;;;;4.78;2.25;;;28.60;95.20;;;;;;5010459;28;20049;-75
2022/07/24 11:47:46;;;;;;;3.05;1.88;;;28.70;95.10;;;;;;4999329;28;20051;-75
2022/07/24 11:50:12;;;;;;;4.53;2.38;;;28.70;95.00;;;;;;5003777;28;20052;-74
2022/07/24 11:52:40;;;;;;;3.00;2.05;;;28.80;94.70;;;;;;5005309;28;20121;-74
2022/07/24 11:55:09;;;;;;;3.25;2.30;;;29.00;94.90;;;;;;4991921;28;20096;-74
2022/07/24 11:57:37;;;;;;;3.92;2.10;;;29.10;94.70;;;;;;5004548;28;20042;-76
2022/07/24 12:00:12;;;;;;;2.90;1.90;;;29.20;93.40;;;;;;5007568;28;20131;-75
2022/07/24 12:02:48;;;;;;;3.05;2.17;;;29.40;94.20;;;;;;5003750;28;20053;-75
2022/07/24 12:05:29;;;;;;;4.47;2.28;;;29.40;93.50;;;;;;4994390;28;20062;-74
2022/07/24 12:07:56;;;;;;;4.80;2.13;;;29.40;93.70;;;;;;4996449;28;20077;-74
2022/07/24 12:10:23;;;;;;;3.00;2.20;;;29.50;93.20;;;;;;5002468;28;20034;-74
2022/07/24 12:12:50;;;;;;;3.22;2.03;;;29.50;93.20;;;;;;4999730;28;20512;-75
2022/07/24 12:15:16;;;;;;;4.93;2.40;;;29.70;93.40;;;;;;5002904;28;20045;-77
2022/07/24 12:18:05;;;;;;;3.30;2.30;;;29.80;93.30;;;;;;4997701;28;20566;-74
2022/07/24 12:20:33;;;;;;;4.50;2.30;;;29.90;92.30;;;;;;5000992;28;20042;-74
2022/07/24 12:23:00;;;;;;;3.67;2.20;;;30.10;93.00;;;;;;5001773;28;20033;-74
2022/07/24 12:25:28;;;;;;;5.07;2.17;;;30.10;92.90;;;;;;4994997;28;20042;-74
2022/07/24 12:28:08;;;;;;;2.78;2.03;;;30.20;92.20;;;;;;4997524;28;20067;-74
2022/07/24 12:30:45;;;;;;;3.40;2.35;;;30.20;90.70;;;;;;5011303;28;20035;-74
2022/07/24 12:33:11;;;;;;;3.55;1.88;;;30.30;91.70;;;;;;4995401;28;20512;-74
2022/07/24 12:36:00;;;;;;;3.35;2.10;;;30.40;91.20;;;;;;4991069;28;20160;-74
2022/07/24 12:38:32;;;;;;;3.85;2.05;;;30.60;91.30;;;;;;4988269;28;20050;-75
2022/07/24 12:41:18;;;;;;;3.90;1.90;;;30.70;91.60;;;;;;4987369;28;20030;-74
2022/07/24 12:43:56;;;;;;;3.58;1.73;;;30.80;90.40;;;;;;4990718;28;20042;-74
2022/07/24 12:46:29;;;;;;;2.30;1.90;;;30.80;90.60;;;;;;5002935;28;20643;-75
2022/07/24 12:49:16;;;;;;;4.88;2.10;;;30.60;91.00;;;;;;4993396;28;20035;-74
2022/07/24 12:51:47;;;;;;;4.65;2.10;;;30.60;90.90;;;;;;4995920;28;20044;-75
2022/07/24 12:54:33;;;;;;;3.88;1.90;;;30.60;91.00;;;;;;4995149;28;20085;-74